Time;durP1;ratioP1;P1;durP2;ratioP2;P2;SDS_P1;SDS_P2;PMS_P1;PMS_P2;Temp;Humidity;BMP_temperature;BMP_pressure;BME280_temperature;BME280_humidity;BME280_pressure;Samples;Min_cycle;Max_cycle;Signal;HPM_P1;HPM_P2
2023/10/14 00:00:47;;;;;;;7.23;4.83;;;18.00;99.90;17.40;98859;;;;587697;241;24035;-81
2023/10/14 00:05:53;;;;;;;9.07;5.30;;;18.00;99.90;17.50;98859;;;;579503;239;24126;-80
2023/10/14 00:08:22;;;;;;;9.90;5.20;;;18.10;99.90;17.60;98860;;;;585344;240;24084;-82
2023/10/14 00:10:49;;;;;;;14.03;5.20;;;18.10;99.90;17.60;98857;;;;604741;235;24019;-80
2023/10/14 00:13:17;;;;;;;6.77;4.97;;;18.20;99.90;17.60;98862;;;;584204;240;24045;-80
2023/10/14 00:15:46;;;;;;;11.90;5.13;;;18.30;99.90;17.70;98857;;;;588456;240;24086;-82
2023/10/14 00:18:15;;;;;;;4.97;4.10;;;18.30;99.90;17.80;98856;;;;588288;240;24026;-79
2023/10/14 00:20:43;;;;;;;13.57;4.70;;;18.30;99.90;17.80;98854;;;;588404;240;24027;-80
2023/10/14 00:23:11;;;;;;;8.30;4.30;;;18.40;99.90;17.80;98848;;;;589264;240;24063;-81
2023/10/14 00:25:39;;;;;;;10.93;4.73;;;18.40;99.90;17.90;98850;;;;588120;241;24059;-81
2023/10/14 00:28:12;;;;;;;6.90;4.30;;;18.40;99.90;17.90;98849;;;;587955;241;24037;-81
2023/10/14 00:30:34;;;;;;;8.93;4.43;;;18.50;99.90;17.90;98846;;;;583208;242;24045;-81
2023/10/14 00:33:03;;;;;;;9.03;5.00;;;18.50;99.90;17.80;98836;;;;583660;241;24029;-81
2023/10/14 00:35:33;;;;;;;10.20;5.20;;;18.40;99.90;17.80;98834;;;;590763;241;24056;-81
2023/10/14 00:38:08;;;;;;;7.30;3.67;;;18.40;99.90;17.80;98828;;;;585661;240;24089;-80
2023/10/14 00:40:26;;;;;;;10.93;4.70;;;18.40;99.90;17.80;98826;;;;591795;240;25224;-80
2023/10/14 00:42:56;;;;;;;6.73;4.50;;;18.40;99.90;17.70;98818;;;;591209;239;24082;-80
2023/10/14 00:45:22;;;;;;;8.47;5.27;;;18.30;99.90;17.70;98810;;;;591105;240;25169;-81
2023/10/14 00:47:51;;;;;;;11.77;4.63;;;18.30;99.90;17.70;98813;;;;591056;241;24111;-82
2023/10/14 00:52:57;;;;;;;12.03;4.53;;;18.30;99.90;17.70;98803;;;;588700;241;23064;-82
2023/10/14 00:55:42;;;;;;;8.90;5.03;;;18.30;99.90;17.70;98798;;;;587644;240;24071;-81
2023/10/14 00:57:59;;;;;;;7.73;4.33;;;18.30;99.90;17.70;98795;;;;603309;237;24000;-81
2023/10/14 01:00:34;;;;;;;8.27;4.37;;;18.20;99.90;17.60;98793;;;;583454;241;24161;-81
2023/10/14 01:02:52;;;;;;;7.50;4.47;;;18.20;99.90;17.60;98787;;;;591008;240;24031;-81
2023/10/14 01:05:21;;;;;;;8.10;4.73;;;18.20;99.90;17.60;98791;;;;590666;240;24060;-82
2023/10/14 01:07:49;;;;;;;7.73;4.63;;;18.10;99.90;17.50;98780;;;;589152;240;24037;-80
2023/10/14 01:10:24;;;;;;;12.43;4.10;;;18.10;99.90;17.50;98784;;;;592619;242;24023;-81
2023/10/14 01:12:46;;;;;;;7.57;3.83;;;18.10;99.90;17.50;98784;;;;591508;241;24069;-81
2023/10/14 01:15:28;;;;;;;13.60;4.13;;;18.10;99.90;17.50;98765;;;;591144;240;24094;-81
2023/10/14 01:17:42;;;;;;;11.73;5.87;;;18.00;99.90;17.50;98767;;;;586221;239;34969;-81
2023/10/14 01:22:43;;;;;;;9.17;4.37;;;18.00;99.90;17.40;98760;;;;584980;240;24059;-81
2023/10/14 01:25:14;;;;;;;10.97;4.67;;;18.00;99.90;17.50;98754;;;;605128;237;24027;-80
2023/10/14 01:27:43;;;;;;;10.03;4.43;;;18.00;99.90;17.40;98749;;;;598575;239;24088;-80
2023/10/14 01:30:18;;;;;;;10.77;5.20;;;18.00;99.90;17.40;98747;;;;598143;239;24023;-80
2023/10/14 01:32:48;;;;;;;9.00;4.30;;;18.00;99.90;17.50;98734;;;;588241;240;24053;-80
2023/10/14 01:35:31;;;;;;;7.10;4.53;;;18.00;99.90;17.50;98739;;;;597179;239;24019;-80
2023/10/14 01:37:45;;;;;;;12.40;5.90;;;18.10;99.90;17.50;98731;;;;582165;241;34986;-81
2023/10/14 01:40:29;;;;;;;8.17;4.90;;;18.00;99.90;17.50;98727;;;;589481;240;24014;-81
2023/10/14 01:43:05;;;;;;;7.57;4.57;;;18.00;99.90;17.50;98714;;;;595921;240;24134;-80
2023/10/14 01:45:31;;;;;;;9.60;4.63;;;18.00;99.90;17.40;98721;;;;589639;239;25129;-80
2023/10/14 01:50:50;;;;;;;4.80;4.10;;;18.00;99.90;17.40;98705;;;;594974;237;24044;-80
2023/10/14 01:53:21;;;;;;;6.97;4.20;;;17.90;99.90;17.30;98707;;;;583895;241;24020;-80
2023/10/14 01:55:43;;;;;;;7.63;4.70;;;17.90;99.90;17.30;98695;;;;583018;241;24161;-81
2023/10/14 01:58:33;;;;;;;7.70;4.70;;;17.90;99.90;17.30;98687;;;;588286;241;23066;-82
2023/10/14 02:00:46;;;;;;;9.27;4.63;;;17.80;99.90;17.20;98694;;;;585701;240;24041;-81
2023/10/14 02:03:09;;;;;;;9.07;4.50;;;17.70;99.90;17.20;98701;;;;588073;241;24061;-81
2023/10/14 02:05:40;;;;;;;11.80;5.00;;;17.70;99.90;17.10;98688;;;;590692;241;24035;-81
2023/10/14 02:08:04;;;;;;;9.07;5.50;;;17.70;99.90;17.10;98678;;;;591153;240;24066;-81
2023/10/14 02:10:35;;;;;;;10.02;5.40;;;17.70;99.90;17.00;98682;;;;588828;236;34783;-82
2023/10/14 02:13:00;;;;;;;12.27;5.00;;;17.60;99.90;16.90;98681;;;;597764;239;24041;-82
2023/10/14 02:15:28;;;;;;;13.10;5.10;;;17.50;99.90;16.80;98667;;;;590697;240;24025;-82
2023/10/14 02:17:56;;;;;;;8.90;4.70;;;17.40;99.90;16.70;98662;;;;590782;241;24022;-82
2023/10/14 02:20:37;;;;;;;5.60;5.00;;;17.30;99.90;16.70;98658;;;;590628;241;23116;-81
2023/10/14 02:22:58;;;;;;;10.27;4.17;;;17.30;99.90;16.70;98659;;;;589411;240;24018;-81
2023/10/14 02:25:31;;;;;;;8.50;4.70;;;17.20;99.90;16.60;98644;;;;598820;237;23999;-82
2023/10/14 02:27:57;;;;;;;10.40;4.27;;;17.20;99.90;16.60;98638;;;;583132;240;24078;-81
2023/10/14 02:30:23;;;;;;;12.32;6.05;;;17.20;99.90;16.70;98642;;;;581693;240;35018;-81
2023/10/14 02:32:51;;;;;;;10.20;5.67;;;17.20;99.90;16.70;98628;;;;596577;240;24140;-81
2023/10/14 02:35:18;;;;;;;8.20;4.83;;;17.20;99.90;16.70;98627;;;;583852;242;24043;-81
2023/10/14 02:37:50;;;;;;;8.70;4.73;;;17.20;99.90;16.70;98620;;;;584549;240;24046;-81
2023/10/14 02:40:23;;;;;;;8.60;5.07;;;17.20;99.90;16.70;98624;;;;589034;240;24112;-79
2023/10/14 02:42:42;;;;;;;7.13;4.60;;;17.30;99.90;16.60;98617;;;;592083;240;24094;-82
2023/10/14 02:45:12;;;;;;;9.23;5.23;;;17.20;99.90;16.60;98624;;;;591430;239;24009;-81
2023/10/14 02:47:40;;;;;;;12.80;5.40;;;17.20;99.90;16.60;98626;;;;591355;240;24043;-80
2023/10/14 02:50:13;;;;;;;8.97;5.23;;;17.20;99.90;16.60;98628;;;;588887;241;24025;-81
2023/10/14 02:52:48;;;;;;;13.60;5.47;;;17.10;99.90;16.60;98621;;;;586123;241;24039;-80
2023/10/14 02:55:22;;;;;;;12.00;4.70;;;17.10;99.90;16.50;98622;;;;595029;237;24053;-81
2023/10/14 02:57:49;;;;;;;7.33;4.63;;;17.10;99.90;16.40;98627;;;;585819;241;24044;-81
2023/10/14 03:00:58;;;;;;;6.90;5.40;;;17.00;99.90;16.40;98631;;;;591349;241;24020;-81
2023/10/14 03:02:54;;;;;;;7.20;4.80;;;17.00;99.90;16.30;98619;;;;597523;237;24006;-80
2023/10/14 03:05:50;;;;;;;14.13;5.23;;;16.90;99.90;16.30;98621;;;;583612;240;24077;-80
2023/10/14 03:08:10;;;;;;;8.40;5.07;;;16.90;99.90;16.30;98610;;;;589046;240;24083;-80
2023/10/14 03:10:40;;;;;;;7.93;5.07;;;16.80;99.90;16.30;98619;;;;594603;237;24123;-80
2023/10/14 03:13:05;;;;;;;8.00;5.40;;;16.80;99.90;16.20;98617;;;;583720;240;24065;-81
2023/10/14 03:15:38;;;;;;;10.37;5.40;;;16.80;99.90;16.20;98612;;;;588253;240;24124;-81
2023/10/14 03:18:02;;;;;;;12.63;6.00;;;16.80;99.90;16.20;98610;;;;590924;239;24036;-80
2023/10/14 03:20:34;;;;;;;9.80;4.87;;;16.80;99.90;16.30;98610;;;;590716;241;24116;-80
2023/10/14 03:23:11;;;;;;;10.60;5.47;;;16.80;99.90;16.30;98604;;;;585014;241;24067;-81
2023/10/14 03:25:35;;;;;;;9.33;4.80;;;16.80;99.90;16.20;98600;;;;583308;241;24096;-82
2023/10/14 03:28:08;;;;;;;9.23;6.10;;;16.80;99.90;16.20;98594;;;;583594;241;35003;-81
2023/10/14 03:30:31;;;;;;;11.40;5.73;;;16.80;99.90;16.20;98583;;;;599611;236;24008;-80
2023/10/14 03:32:56;;;;;;;7.47;5.03;;;16.80;99.90;16.30;98584;;;;586135;240;24167;-80
2023/10/14 03:35:28;;;;;;;6.20;5.10;;;16.90;99.90;16.30;98580;;;;595992;241;24078;-80
2023/10/14 03:37:54;;;;;;;10.73;4.60;;;16.80;99.90;16.30;98567;;;;590888;239;24089;-81
2023/10/14 03:43:11;;;;;;;9.80;4.90;;;16.90;99.90;16.30;98546;;;;583668;242;24082;-81
2023/10/14 03:45:47;;;;;;;12.17;5.73;;;16.90;99.90;16.30;98547;;;;599157;237;24068;-81
2023/10/14 03:48:08;;;;;;;7.70;4.53;;;16.90;99.90;16.30;98534;;;;598308;240;24032;-81
2023/10/14 03:50:36;;;;;;;8.35;6.03;;;16.80;99.90;16.30;98526;;;;587773;235;34881;-81
2023/10/14 03:53:05;;;;;;;14.13;5.47;;;16.90;99.90;16.30;98526;;;;583657;240;24117;-81
2023/10/14 03:55:29;;;;;;;7.67;5.13;;;16.90;99.90;16.30;98535;;;;597972;239;24021;-80
2023/10/14 03:58:08;;;;;;;8.00;5.10;;;16.90;99.90;16.20;98524;;;;591348;240;24055;-80
2023/10/14 04:00:36;;;;;;;8.77;4.60;;;16.90;99.90;16.20;98513;;;;591232;239;24102;-81
2023/10/14 04:02:57;;;;;;;9.67;5.77;;;16.80;99.90;16.20;98515;;;;588718;241;24059;-82
2023/10/14 04:05:21;;;;;;;10.47;5.27;;;16.80;99.90;16.20;98514;;;;591012;240;24076;-81
2023/10/14 04:07:49;;;;;;;7.50;5.13;;;16.80;99.90;16.10;98499;;;;589057;241;26218;-81
2023/10/14 04:10:22;;;;;;;11.03;5.43;;;16.70;99.90;16.10;98499;;;;600158;236;24042;-81
2023/10/14 04:12:53;;;;;;;13.03;5.30;;;16.60;99.90;16.00;98486;;;;597821;240;24053;-80
2023/10/14 04:17:47;;;;;;;7.17;5.33;;;16.60;99.90;15.90;98482;;;;583468;241;24111;-81
2023/10/14 04:22:40;;;;;;;15.27;5.60;;;16.50;99.90;15.80;98464;;;;585265;241;24053;-81
2023/10/14 04:25:22;;;;;;;10.27;5.13;;;16.50;99.90;15.80;98461;;;;583175;240;24060;-81
2023/10/14 04:30:22;;;;;;;8.10;5.07;;;16.40;99.90;15.70;98454;;;;586326;241;24035;-81
2023/10/14 04:35:27;;;;;;;11.87;7.23;;;16.30;99.90;15.70;98441;;;;596033;241;24085;-81
2023/10/14 04:37:52;;;;;;;10.87;5.53;;;16.30;99.90;15.70;98436;;;;581655;241;24048;-80
2023/10/14 04:48:09;;;;;;;11.63;4.60;;;16.20;99.90;15.50;98425;;;;584266;241;24028;-81
2023/10/14 04:50:38;;;;;;;10.00;5.10;;;16.20;99.90;15.50;98424;;;;583481;241;24068;-80
2023/10/14 04:53:06;;;;;;;8.10;4.23;;;16.10;99.90;15.50;98411;;;;584447;240;24065;-79
2023/10/14 04:55:36;;;;;;;10.93;4.93;;;16.10;99.90;15.50;98417;;;;589003;240;24076;-81
2023/10/14 04:58:23;;;;;;;10.13;5.30;;;16.00;99.90;15.40;98397;;;;584185;241;24034;-80
2023/10/14 05:00:48;;;;;;;13.17;5.13;;;16.00;99.90;15.40;98405;;;;581687;240;24087;-80
2023/10/14 05:03:15;;;;;;;9.17;4.87;;;16.00;99.90;15.30;98394;;;;598172;239;24048;-81
2023/10/14 05:05:46;;;;;;;8.53;4.40;;;15.90;99.90;15.30;98394;;;;584331;240;24025;-81
2023/10/14 05:08:15;;;;;;;6.03;4.73;;;15.90;99.90;15.30;98393;;;;598069;237;24012;-81
2023/10/14 05:10:44;;;;;;;13.67;5.67;;;15.90;99.90;15.30;98401;;;;588389;241;24037;-80
2023/10/14 05:13:09;;;;;;;5.20;4.70;;;15.90;99.90;15.20;98393;;;;595362;241;24084;-81
2023/10/14 05:15:40;;;;;;;10.50;5.60;;;15.80;99.90;15.20;98399;;;;586690;241;24039;-82
2023/10/14 05:18:07;;;;;;;6.80;4.80;;;15.80;99.90;15.20;98412;;;;594575;237;24075;-80
2023/10/14 05:21:09;;;;;;;8.00;4.87;;;15.80;99.90;15.20;98405;;;;586265;241;24039;-81
2023/10/14 05:23:05;;;;;;;5.60;4.60;;;15.80;99.90;15.10;98388;;;;590892;238;24095;-80
2023/10/14 05:25:32;;;;;;;8.57;4.90;;;15.70;99.90;15.10;98400;;;;591026;240;25172;-80
2023/10/14 05:28:06;;;;;;;8.77;4.90;;;16.10;99.90;15.10;98401;;;;597852;240;24025;-80
2023/10/14 05:30:33;;;;;;;11.33;5.03;;;15.70;99.90;15.10;98385;;;;589007;241;24114;-81
2023/10/14 05:32:59;;;;;;;9.70;4.57;;;15.70;99.90;15.10;98368;;;;599104;237;24051;-80
2023/10/14 05:35:25;;;;;;;6.80;4.50;;;15.70;99.90;15.10;98377;;;;587870;240;24139;-80
2023/10/14 05:37:53;;;;;;;10.77;4.97;;;15.70;99.90;15.10;98372;;;;591121;240;24150;-81
2023/10/14 05:40:21;;;;;;;11.30;4.87;;;15.70;99.90;15.10;98377;;;;589087;240;24053;-81
2023/10/14 05:42:50;;;;;;;6.97;4.90;;;15.70;99.90;15.10;98385;;;;589209;240;24048;-81
2023/10/14 05:45:17;;;;;;;10.50;4.67;;;15.70;99.90;15.10;98387;;;;600315;237;24039;-81
2023/10/14 05:47:46;;;;;;;5.60;4.13;;;15.70;99.90;15.10;98391;;;;597924;240;24034;-81
2023/10/14 05:50:15;;;;;;;12.03;4.43;;;15.70;99.90;15.10;98378;;;;591121;240;24100;-82
2023/10/14 05:52:45;;;;;;;9.67;4.40;;;15.70;99.90;15.20;98384;;;;589159;240;24085;-81
2023/10/14 05:55:11;;;;;;;5.93;4.20;;;15.70;99.90;15.20;98359;;;;586573;240;24057;-81
2023/10/14 05:57:42;;;;;;;12.93;4.60;;;15.80;99.90;15.20;98353;;;;599047;237;24123;-81
2023/10/14 06:00:23;;;;;;;12.63;5.00;;;15.80;99.90;15.20;98365;;;;597899;240;24024;-81
2023/10/14 06:02:55;;;;;;;5.40;4.07;;;15.80;99.90;15.20;98358;;;;594611;237;24043;-81
2023/10/14 06:05:22;;;;;;;6.93;4.50;;;15.80;99.90;15.30;98357;;;;593848;240;24062;-81
2023/10/14 06:07:50;;;;;;;9.50;5.10;;;15.80;99.90;15.30;98369;;;;584567;241;24149;-81
2023/10/14 06:10:22;;;;;;;7.43;4.33;;;15.90;99.90;15.30;98359;;;;582497;240;24075;-81
2023/10/14 06:12:50;;;;;;;4.50;4.07;;;15.90;99.90;15.30;98357;;;;595641;237;24041;-81
2023/10/14 06:15:17;;;;;;;7.07;4.10;;;15.90;99.90;15.30;98365;;;;596434;240;24044;-81
2023/10/14 06:17:48;;;;;;;7.67;4.83;;;15.90;99.90;15.30;98360;;;;587041;240;24031;-80
2023/10/14 06:20:20;;;;;;;10.00;4.00;;;16.00;99.90;15.40;98355;;;;586842;240;24119;-81
2023/10/14 06:22:49;;;;;;;6.20;3.63;;;16.00;99.90;15.40;98355;;;;595329;237;24005;-81
2023/10/14 06:25:17;;;;;;;11.90;4.47;;;16.00;99.90;15.50;98349;;;;586929;241;24087;-81
2023/10/14 06:27:45;;;;;;;7.43;4.27;;;16.10;99.90;15.50;98344;;;;587001;241;24014;-81
2023/10/14 06:30:19;;;;;;;6.93;4.13;;;16.20;99.90;15.70;98356;;;;586889;241;24068;-81
2023/10/14 06:32:50;;;;;;;10.13;3.83;;;16.20;99.90;15.80;98350;;;;585931;240;24027;-82
2023/10/14 06:35:18;;;;;;;8.33;3.93;;;16.30;99.90;15.80;98358;;;;604661;236;24012;-80
2023/10/14 06:37:49;;;;;;;4.27;3.80;;;16.40;99.90;15.90;98360;;;;587116;241;24061;-81
2023/10/14 06:40:21;;;;;;;7.30;3.70;;;16.60;99.90;16.00;98353;;;;586738;241;24048;-80
2023/10/14 06:42:50;;;;;;;6.40;3.67;;;16.60;99.90;16.00;98360;;;;588654;238;24098;-81
2023/10/14 06:45:14;;;;;;;4.77;3.60;;;16.60;99.90;16.10;98364;;;;586092;241;24122;-81
2023/10/14 06:48:03;;;;;;;6.33;4.30;;;16.70;99.90;16.20;98362;;;;587932;241;24024;-81
2023/10/14 06:50:15;;;;;;;5.47;3.43;;;16.80;99.90;16.30;98349;;;;592690;241;24055;-81
2023/10/14 06:52:43;;;;;;;7.77;4.20;;;16.80;99.90;16.40;98351;;;;595350;240;24049;-80
2023/10/14 06:55:08;;;;;;;6.47;3.47;;;17.00;99.90;16.50;98347;;;;581854;241;24100;-79
2023/10/14 06:57:36;;;;;;;6.77;3.87;;;17.00;99.90;16.50;98335;;;;586646;241;24031;-78
2023/10/14 07:00:12;;;;;;;12.23;3.50;;;17.10;99.90;16.60;98339;;;;588075;241;24042;-79
2023/10/14 07:02:38;;;;;;;3.77;3.43;;;17.10;99.90;16.60;98331;;;;582067;241;24025;-79
2023/10/14 07:05:06;;;;;;;7.10;3.50;;;17.20;99.90;16.70;98344;;;;595934;240;24059;-80
2023/10/14 07:07:33;;;;;;;7.17;4.10;;;17.20;99.90;16.80;98342;;;;592372;236;24023;-81
2023/10/14 07:10:01;;;;;;;5.13;3.83;;;17.30;99.90;16.90;98343;;;;585912;241;24055;-81
2023/10/14 07:12:29;;;;;;;6.57;3.30;;;17.50;99.90;17.10;98336;;;;596002;240;24105;-80
2023/10/14 07:14:58;;;;;;;8.20;3.37;;;17.60;99.90;17.30;98341;;;;588044;241;24029;-80
2023/10/14 07:17:25;;;;;;;8.97;3.60;;;17.80;99.90;17.40;98354;;;;592367;240;24082;-80
2023/10/14 07:19:53;;;;;;;7.82;4.50;;;17.90;99.90;17.30;98338;;;;584975;240;34983;-80
2023/10/14 07:22:21;;;;;;;14.50;4.00;;;17.90;99.90;17.20;98353;;;;600130;237;24041;-81
2023/10/14 07:24:49;;;;;;;8.20;3.57;;;17.80;99.90;17.20;98343;;;;596632;240;23058;-81
2023/10/14 07:27:18;;;;;;;8.10;3.97;;;17.80;99.90;18.00;98351;;;;588682;240;24042;-80
2023/10/14 07:29:49;;;;;;;7.33;3.60;;;19.40;99.90;19.10;98352;;;;596500;240;24022;-81
2023/10/14 07:32:19;;;;;;;4.07;2.90;;;19.30;99.90;20.50;98353;;;;594777;237;23996;-82
2023/10/14 07:34:44;;;;;;;8.50;3.83;;;20.60;99.90;21.60;98373;;;;585782;240;24028;-81
2023/10/14 07:37:16;;;;;;;4.40;3.40;;;21.90;99.90;21.80;98372;;;;591305;241;24047;-81
2023/10/14 07:39:52;;;;;;;5.33;3.60;;;22.40;99.90;21.40;98380;;;;589198;240;25127;-80
2023/10/14 07:42:13;;;;;;;6.47;3.70;;;22.10;99.90;20.80;98395;;;;599777;237;24010;-81
2023/10/14 07:44:39;;;;;;;6.10;3.90;;;21.10;99.90;20.30;98394;;;;583973;241;24111;-81
2023/10/14 07:47:10;;;;;;;5.87;3.80;;;21.10;99.90;19.90;98420;;;;591319;240;24075;-81
2023/10/14 07:49:35;;;;;;;7.97;3.63;;;20.70;99.90;19.60;98442;;;;591482;240;24055;-80
2023/10/14 07:52:06;;;;;;;4.83;3.53;;;20.40;99.90;19.40;98438;;;;591163;241;24110;-80
2023/10/14 07:54:31;;;;;;;5.33;3.00;;;20.10;99.90;19.10;98447;;;;582548;240;24056;-81
2023/10/14 07:56:59;;;;;;;3.37;2.50;;;19.80;99.90;19.00;98489;;;;591019;241;24088;-81
2023/10/14 07:59:27;;;;;;;4.20;2.40;;;19.60;99.90;18.80;98505;;;;590553;240;24057;-81
2023/10/14 08:01:55;;;;;;;3.70;2.40;;;19.50;99.90;18.40;98515;;;;591054;241;23064;-81
2023/10/14 08:04:24;;;;;;;1.90;1.40;;;19.10;99.90;18.00;98554;;;;591082;240;24096;-81
2023/10/14 08:06:52;;;;;;;1.73;1.20;;;18.30;99.90;17.50;98576;;;;588970;240;24044;-82
2023/10/14 08:09:28;;;;;;;1.73;0.80;;;18.20;99.90;16.80;98584;;;;598557;237;24014;-81
2023/10/14 08:11:57;;;;;;;2.13;1.03;;;17.60;99.90;16.20;98593;;;;585553;240;24106;-80
2023/10/14 08:14:21;;;;;;;2.07;0.93;;;17.00;99.90;15.90;98597;;;;584833;241;24109;-80
2023/10/14 08:16:49;;;;;;;7.13;0.50;;;16.60;99.90;15.70;98591;;;;590643;241;24049;-80
2023/10/14 08:19:21;;;;;;;1.20;0.80;;;16.30;99.90;15.80;98583;;;;590691;241;24130;-81
2023/10/14 08:21:50;;;;;;;1.10;0.30;;;16.30;99.90;16.00;98577;;;;590835;240;24068;-82
2023/10/14 08:24:14;;;;;;;1.83;0.70;;;16.80;99.90;16.30;98582;;;;591050;240;24045;-81
2023/10/14 08:26:41;;;;;;;1.70;0.53;;;16.80;99.90;16.70;98588;;;;588805;239;24066;-80
2023/10/14 08:29:12;;;;;;;0.97;0.60;;;17.20;99.90;16.70;98583;;;;600326;237;23999;-81
2023/10/14 08:31:37;;;;;;;0.60;0.50;;;17.30;99.90;16.60;98597;;;;586215;240;24028;-80
2023/10/14 08:34:07;;;;;;;0.57;0.57;;;17.10;99.90;16.30;98589;;;;587257;240;24098;-80
2023/10/14 08:36:34;;;;;;;2.43;0.70;;;17.10;99.90;16.10;98592;;;;599808;237;25044;-81
2023/10/14 08:39:02;;;;;;;1.53;0.73;;;16.80;99.90;15.80;98599;;;;583893;240;24048;-80
2023/10/14 08:41:30;;;;;;;0.77;0.63;;;16.60;99.90;15.60;98615;;;;591615;239;24101;-80
2023/10/14 08:43:58;;;;;;;1.77;1.03;;;16.00;99.90;15.30;98619;;;;590880;239;24046;-80
2023/10/14 08:46:34;;;;;;;1.07;0.80;;;15.80;99.90;15.10;98610;;;;586507;241;24051;-81
2023/10/14 08:48:55;;;;;;;3.30;0.60;;;15.80;99.90;15.00;98597;;;;583787;240;24120;-81
2023/10/14 08:51:24;;;;;;;0.73;0.73;;;15.60;99.90;15.00;98609;;;;591899;241;26222;-81
2023/10/14 08:53:53;;;;;;;0.47;0.40;;;15.60;99.90;15.10;98663;;;;585914;241;24025;-82
2023/10/14 08:56:23;;;;;;;1.00;0.60;;;15.80;99.90;15.20;98651;;;;581391;242;24037;-80
2023/10/14 08:58:47;;;;;;;2.77;0.60;;;15.80;99.90;15.40;98647;;;;595356;240;24037;-81
2023/10/14 09:01:16;;;;;;;5.47;0.90;;;16.00;99.90;15.80;98667;;;;587915;241;24025;-82
2023/10/14 09:03:49;;;;;;;1.90;1.40;;;16.30;99.90;16.00;98679;;;;581239;241;24053;-81
2023/10/14 09:06:20;;;;;;;7.23;1.40;;;16.50;99.90;16.00;98698;;;;597518;240;24078;-80
2023/10/14 09:08:45;;;;;;;5.20;1.20;;;16.60;99.90;16.10;98692;;;;587445;240;24026;-81
2023/10/14 09:11:31;;;;;;;4.27;1.80;;;16.70;99.90;16.00;98711;;;;585558;241;24072;-80
2023/10/14 09:14:02;;;;;;;4.60;0.60;;;16.60;99.90;15.80;98726;;;;588519;241;24071;-80
2023/10/14 09:16:32;;;;;;;2.33;0.90;;;16.50;99.90;15.70;98735;;;;596753;240;24088;-80
2023/10/14 09:19:00;;;;;;;2.07;0.60;;;16.40;99.90;15.60;98739;;;;588769;241;24092;-80
2023/10/14 09:21:29;;;;;;;2.07;0.80;;;16.20;99.90;15.50;98748;;;;581474;242;24059;-80
2023/10/14 09:23:57;;;;;;;2.80;0.93;;;16.10;99.90;15.30;98749;;;;586133;241;24178;-81
2023/10/14 09:26:22;;;;;;;1.57;0.80;;;16.00;99.90;15.20;98766;;;;597312;240;24064;-81
2023/10/14 09:28:50;;;;;;;1.37;0.80;;;15.80;99.90;15.10;98775;;;;588626;241;24068;-81
2023/10/14 09:31:19;;;;;;;0.87;0.70;;;15.70;99.90;15.10;98774;;;;594289;237;24022;-80
2023/10/14 09:33:52;;;;;;;2.17;0.90;;;16.00;99.90;15.50;98773;;;;583446;241;24014;-80
2023/10/14 09:36:18;;;;;;;1.23;0.90;;;15.90;99.90;15.80;98778;;;;590896;240;24080;-82
2023/10/14 09:38:48;;;;;;;2.27;0.93;;;16.30;99.90;16.00;98783;;;;589246;240;24131;-80
2023/10/14 09:41:17;;;;;;;2.10;0.90;;;16.60;99.90;16.00;98782;;;;600556;237;23989;-80
2023/10/14 09:43:48;;;;;;;1.63;0.70;;;16.60;99.90;15.90;98787;;;;591282;240;24036;-80
2023/10/14 09:46:15;;;;;;;2.20;0.87;;;16.50;99.90;15.80;98786;;;;582029;240;24091;-80
2023/10/14 09:48:43;;;;;;;4.00;0.90;;;16.40;99.90;15.90;98797;;;;583424;242;24028;-80
2023/10/14 09:51:11;;;;;;;2.17;0.97;;;16.50;99.90;16.40;98787;;;;587076;240;24068;-82
2023/10/14 09:53:39;;;;;;;3.47;1.83;;;16.90;99.90;16.80;98792;;;;589183;240;24044;-80
2023/10/14 09:56:11;;;;;;;1.53;0.93;;;17.30;99.90;16.90;98783;;;;588333;240;24125;-80
2023/10/14 09:58:43;;;;;;;4.43;0.93;;;17.50;99.90;17.00;98786;;;;584771;241;24028;-80
2023/10/14 10:01:17;;;;;;;4.50;0.70;;;17.60;99.90;17.10;98782;;;;597669;240;24022;-80
2023/10/14 10:03:59;;;;;;;3.23;0.90;;;17.70;99.90;17.00;98802;;;;587432;240;24089;-79
2023/10/14 10:07:03;;;;;;;3.77;1.20;;;17.60;99.90;16.90;98814;;;;594953;237;24248;-80
2023/10/14 10:10:06;;;;;;;2.37;1.67;;;17.40;99.90;16.80;98808;;;;592845;241;24045;-80
2023/10/14 10:12:31;;;;;;;2.17;1.07;;;17.40;99.90;16.60;98814;;;;597392;240;24082;-80
2023/10/14 10:14:59;;;;;;;7.50;1.23;;;17.20;99.90;16.50;98813;;;;589788;241;25082;-79
2023/10/14 10:17:27;;;;;;;6.80;1.50;;;16.90;99.90;16.30;98802;;;;584935;241;24034;-81
2023/10/14 10:20:10;;;;;;;3.00;1.83;;;16.90;99.90;16.30;98814;;;;588648;241;24034;-81
2023/10/14 10:22:43;;;;;;;2.67;1.10;;;16.90;99.90;16.30;98821;;;;582866;242;24052;-80
2023/10/14 10:25:09;;;;;;;4.77;1.30;;;16.90;99.90;16.30;98826;;;;583064;241;24127;-80
2023/10/14 10:27:34;;;;;;;5.53;1.03;;;16.90;99.90;16.40;98844;;;;592309;235;24102;-81
2023/10/14 10:30:06;;;;;;;3.77;1.67;;;17.00;99.90;16.40;98845;;;;583671;241;24032;-81
2023/10/14 10:32:33;;;;;;;5.13;1.07;;;17.00;99.90;16.40;98838;;;;586021;241;24120;-81
2023/10/14 10:35:10;;;;;;;6.17;1.43;;;17.00;99.90;16.40;98841;;;;595670;241;24022;-81
2023/10/14 10:37:51;;;;;;;3.03;1.13;;;17.00;99.90;16.40;98858;;;;592387;237;23988;-81
2023/10/14 10:40:28;;;;;;;2.97;1.95;;;17.00;99.90;16.40;98851;;;;586485;241;45797;-82
2023/10/14 10:42:59;;;;;;;3.37;1.30;;;17.00;99.90;16.30;98869;;;;589445;241;24013;-81
2023/10/14 10:45:35;;;;;;;3.07;1.30;;;16.90;99.90;16.30;98875;;;;586591;242;24029;-80
2023/10/14 10:48:03;;;;;;;2.37;1.13;;;16.90;99.90;16.30;98882;;;;586045;241;24092;-82
2023/10/14 10:50:39;;;;;;;9.87;1.50;;;16.90;99.90;16.30;98870;;;;586840;240;24063;-81
2023/10/14 10:53:07;;;;;;;3.43;1.40;;;16.80;99.90;16.20;98890;;;;586700;240;24037;-81
2023/10/14 10:55:37;;;;;;;5.23;0.90;;;16.80;99.90;16.10;98891;;;;593580;234;24035;-80
2023/10/14 10:58:08;;;;;;;3.93;1.23;;;16.60;99.90;16.00;98899;;;;583746;240;24061;-81
2023/10/14 11:00:37;;;;;;;6.40;1.30;;;16.80;99.90;16.20;98908;;;;586926;240;24035;-80
2023/10/14 11:03:02;;;;;;;3.60;1.27;;;16.70;99.90;16.40;98903;;;;596197;240;24050;-81
2023/10/14 11:05:33;;;;;;;5.13;1.70;;;16.90;99.90;16.50;98911;;;;596118;240;24101;-81
2023/10/14 11:08:00;;;;;;;8.47;1.47;;;17.00;99.90;16.50;98912;;;;586598;240;24090;-82
2023/10/14 11:10:29;;;;;;;5.23;1.37;;;17.20;99.90;16.60;98912;;;;589448;240;24033;-81
2023/10/14 11:13:00;;;;;;;4.80;2.03;;;17.20;99.90;16.70;98935;;;;589964;241;24084;-81
2023/10/14 11:15:31;;;;;;;2.10;1.17;;;17.30;99.90;16.60;98927;;;;586159;240;24109;-81
2023/10/14 11:17:56;;;;;;;6.07;2.47;;;17.20;99.90;16.40;98931;;;;588026;240;24032;-82
2023/10/14 11:20:24;;;;;;;5.30;0.90;;;17.00;99.90;16.30;98935;;;;588131;241;24027;-81
2023/10/14 11:22:49;;;;;;;4.13;1.17;;;16.90;99.90;16.20;98934;;;;583056;240;24026;-80
2023/10/14 11:25:19;;;;;;;7.00;1.37;;;16.80;99.90;16.10;98949;;;;591942;241;24056;-80
2023/10/14 11:27:44;;;;;;;2.40;1.00;;;16.70;99.90;16.10;98949;;;;588918;241;24062;-81
2023/10/14 11:30:12;;;;;;;7.40;1.43;;;16.70;99.90;16.20;98956;;;;589447;241;24039;-82
2023/10/14 11:32:53;;;;;;;3.57;1.47;;;16.70;99.90;16.10;98959;;;;591792;241;24020;-81
2023/10/14 11:35:18;;;;;;;4.80;1.23;;;16.70;99.90;16.10;98978;;;;595876;240;24099;-81
2023/10/14 11:38:04;;;;;;;2.30;1.17;;;16.60;99.90;16.10;98984;;;;594455;237;24026;-81
2023/10/14 11:40:36;;;;;;;3.77;1.13;;;16.60;99.90;16.00;98984;;;;585759;240;24024;-80
2023/10/14 11:43:11;;;;;;;5.10;1.20;;;16.60;99.90;16.00;98970;;;;582320;240;24066;-81
2023/10/14 11:45:35;;;;;;;5.30;1.37;;;16.50;99.90;16.00;98974;;;;604193;237;24028;-80
2023/10/14 11:48:07;;;;;;;4.90;1.47;;;16.60;99.90;16.10;98989;;;;583879;241;24084;-80
2023/10/14 11:50:32;;;;;;;5.17;0.83;;;16.70;99.90;16.10;98986;;;;595674;239;24029;-81
2023/10/14 11:53:02;;;;;;;3.07;1.40;;;16.60;99.90;16.00;98987;;;;583504;241;24034;-81
2023/10/14 11:55:30;;;;;;;3.23;1.50;;;16.60;99.90;15.90;98990;;;;583677;241;24050;-80